createdAt,value
2022-09-12T00:01:51.722Z,84.63
2022-09-12T00:06:53.890Z,84.75
2022-09-12T00:11:55.471Z,85.04
2022-09-12T00:16:59.220Z,85.32
2022-09-12T00:22:01.790Z,85.99
2022-09-12T00:27:03.524Z,86.57
2022-09-12T00:32:05.140Z,86.68
2022-09-12T00:37:06.743Z,86.71
2022-09-12T00:42:11.140Z,87.03
2022-09-12T00:47:33.312Z,87.04
2022-09-12T00:52:57.434Z,87.17
2022-09-12T00:58:28.615Z,87.31
2022-09-12T01:03:30.588Z,87.50
2022-09-12T01:08:36.710Z,87.65
2022-09-12T01:13:38.946Z,88.19
2022-09-12T01:19:47.960Z,87.75
2022-09-12T01:25:35.075Z,88.29
2022-09-12T01:30:55.501Z,88.73
2022-09-12T01:36:30.562Z,88.77
2022-09-12T01:42:10.383Z,89.13
2022-09-12T01:47:22.094Z,88.99
2022-09-12T01:52:53.292Z,89.22
2022-09-12T01:58:10.440Z,89.71
2022-09-12T02:03:19.911Z,89.16
2022-09-12T02:08:44.598Z,89.32
2022-09-12T02:13:56.956Z,89.47
2022-09-12T02:19:15.287Z,90.11
2022-09-12T02:24:19.016Z,90.04
2022-09-12T02:29:20.649Z,90.04
2022-09-12T02:34:49.036Z,89.86
2022-09-12T02:39:53.797Z,89.77
2022-09-12T02:44:56.949Z,90.07
2022-09-12T02:49:59.785Z,90.25
2022-09-12T02:55:04.703Z,90.45
2022-09-12T03:00:08.631Z,90.26
2022-09-12T03:05:32.348Z,90.02
2022-09-12T03:10:42.659Z,89.63
2022-09-12T03:16:15.515Z,89.61
2022-09-12T03:22:00.616Z,89.93
2022-09-12T03:27:31.049Z,89.61
2022-09-12T03:32:50.636Z,89.61
2022-09-12T03:37:52.826Z,89.72
2022-09-12T03:42:54.445Z,89.61
2022-09-12T03:47:56.147Z,89.42
2022-09-12T03:53:02.360Z,89.25
2022-09-12T03:58:04.030Z,89.28
2022-09-12T04:03:05.525Z,89.30
2022-09-12T04:08:07.057Z,89.17
2022-09-12T04:13:08.602Z,89.18
2022-09-12T04:18:10.228Z,88.97
2022-09-12T04:23:11.803Z,88.91
2022-09-12T04:28:13.349Z,88.89
2022-09-12T04:33:15.421Z,88.90
2022-09-12T04:38:16.960Z,88.82
2022-09-12T04:43:18.497Z,88.82
2022-09-12T04:48:20.024Z,88.75
2022-09-12T04:53:21.619Z,88.64
2022-09-12T04:58:23.108Z,88.58
2022-09-12T05:03:24.580Z,88.51
2022-09-12T05:08:26.096Z,88.39
2022-09-12T05:13:27.980Z,88.36
2022-09-12T05:18:32.822Z,88.29
2022-09-12T05:23:35.821Z,88.21
2022-09-12T05:28:38.724Z,88.23
2022-09-12T05:33:43.394Z,88.20
2022-09-12T05:38:46.470Z,88.24
2022-09-12T05:43:53.547Z,88.23
2022-09-12T05:48:56.930Z,88.17
2022-09-12T05:54:02.678Z,88.17
2022-09-12T05:59:19.878Z,88.15
2022-09-12T06:04:23.182Z,88.13
2022-09-12T06:09:25.190Z,88.00
2022-09-12T06:14:26.830Z,87.92
2022-09-12T06:19:28.626Z,87.89
2022-09-12T06:24:30.400Z,87.65
2022-09-12T06:29:34.814Z,87.49
2022-09-12T06:34:36.487Z,87.06
2022-09-12T06:39:38.606Z,86.52
2022-09-12T06:44:40.745Z,85.96
2022-09-12T06:49:42.472Z,85.72
2022-09-12T06:54:44.162Z,85.10
2022-09-12T06:59:45.676Z,84.49
2022-09-12T07:04:49.476Z,83.75
2022-09-12T07:09:53.261Z,82.86
2022-09-12T07:14:55.155Z,82.11
2022-09-12T07:19:59.006Z,82.03
2022-09-12T07:25:04.933Z,81.12
2022-09-12T07:30:07.280Z,80.32
2022-09-12T07:35:09.038Z,79.68
2022-09-12T07:40:10.722Z,77.50
2022-09-12T07:45:12.373Z,77.60
2022-09-12T07:50:14.081Z,76.44
2022-09-12T07:55:16.035Z,75.90
2022-09-12T08:00:19.010Z,76.32
2022-09-12T08:05:20.499Z,75.95
2022-09-12T08:10:22.079Z,74.61
2022-09-12T08:15:24.401Z,75.11
2022-09-12T08:20:28.421Z,74.24
2022-09-12T08:25:30.616Z,74.15
2022-09-12T08:30:32.178Z,74.36
2022-09-12T08:35:33.738Z,74.19
2022-09-12T08:41:06.016Z,74.65
2022-09-12T08:46:21.123Z,75.22
2022-09-12T08:51:23.865Z,76.73
2022-09-12T08:56:31.785Z,75.99
2022-09-12T09:01:44.972Z,75.93
2022-09-12T09:07:07.996Z,75.54
2022-09-12T09:12:58.347Z,75.42
2022-09-12T09:18:16.404Z,73.95
2022-09-12T09:23:34.396Z,73.54
2022-09-12T09:28:44.525Z,72.65
2022-09-12T09:33:57.521Z,71.10
2022-09-12T09:39:29.446Z,68.18
2022-09-12T09:44:32.025Z,67.30
2022-09-12T09:49:35.619Z,67.57
2022-09-12T09:54:53.775Z,67.49
2022-09-12T09:59:55.464Z,65.31
2022-09-12T10:04:59.167Z,63.38
2022-09-12T10:10:15.765Z,62.97
2022-09-12T10:15:21.800Z,63.05
2022-09-12T10:20:42.276Z,63.33
2022-09-12T10:25:55.848Z,62.56
2022-09-12T10:30:59.392Z,63.35
2022-09-12T10:36:01.915Z,64.64
2022-09-12T10:41:09.025Z,65.27
2022-09-12T10:46:27.882Z,65.33
2022-09-12T10:51:29.973Z,65.48
2022-09-12T10:56:59.669Z,65.63
2022-09-12T11:02:18.835Z,65.32
2022-09-12T11:07:55.140Z,65.23
2022-09-12T11:13:19.708Z,65.29
2022-09-12T11:18:45.922Z,65.71
2022-09-12T11:24:21.754Z,64.54
2022-09-12T11:30:00.909Z,62.65
2022-09-12T11:35:28.247Z,60.95
2022-09-12T11:40:55.128Z,60.41
2022-09-12T11:46:26.882Z,60.17
2022-09-12T11:52:10.612Z,62.88
2022-09-12T11:57:49.740Z,63.68
2022-09-12T12:03:06.542Z,64.93
2022-09-12T12:08:11.712Z,64.11
2022-09-12T12:13:53.870Z,63.33
2022-09-12T12:19:10.707Z,63.18
2022-09-12T12:24:21.905Z,62.13
2022-09-12T12:29:23.289Z,63.38
2022-09-12T12:34:33.578Z,64.08
2022-09-12T12:39:37.924Z,63.85
2022-09-12T12:44:46.698Z,62.21
2022-09-12T12:50:09.562Z,59.84
2022-09-12T12:55:23.226Z,58.97
2022-09-12T13:00:24.820Z,59.37
2022-09-12T13:05:30.135Z,60.24
2022-09-12T13:10:35.273Z,60.12
2022-09-12T13:15:36.806Z,61.08
2022-09-12T13:21:01.150Z,61.83
2022-09-12T13:26:21.451Z,61.71
2022-09-12T13:31:30.056Z,60.04
2022-09-12T13:37:08.066Z,58.87
2022-09-12T13:42:28.453Z,56.14
2022-09-12T13:47:41.501Z,56.24
2022-09-12T13:52:49.940Z,57.35
2022-09-12T13:58:26.460Z,58.22
2022-09-12T14:03:58.890Z,59.03
2022-09-12T14:09:01.619Z,60.01
2022-09-12T14:14:16.656Z,60.16
2022-09-12T14:19:20.306Z,60.47
2022-09-12T14:24:23.689Z,60.51
2022-09-12T14:29:26.803Z,60.84
2022-09-12T14:34:29.475Z,60.18
2022-09-12T14:39:42.384Z,59.92
2022-09-12T14:44:55.823Z,60.52
2022-09-12T14:49:57.558Z,61.40
2022-09-12T14:55:20.720Z,61.81
2022-09-12T15:00:23.171Z,59.92
2022-09-12T15:05:27.310Z,58.95
2022-09-12T15:10:37.059Z,58.35
2022-09-12T15:15:45.350Z,58.17
2022-09-12T15:20:51.536Z,58.54
2022-09-12T15:25:53.187Z,58.97
2022-09-12T15:30:56.868Z,59.32
2022-09-12T15:35:59.035Z,60.03
2022-09-12T15:41:00.628Z,60.19
2022-09-12T15:46:06.166Z,60.83
2022-09-12T15:51:18.018Z,61.17
2022-09-12T15:56:21.742Z,61.64
2022-09-12T16:01:23.490Z,61.53
2022-09-12T16:06:27.280Z,62.08
2022-09-12T16:11:28.884Z,62.47
2022-09-12T16:16:31.436Z,63.22
2022-09-12T16:21:32.929Z,63.99
2022-09-12T16:26:34.980Z,64.68
2022-09-12T16:31:37.926Z,65.57
2022-09-12T16:36:39.484Z,66.22
2022-09-12T16:41:42.141Z,66.90
2022-09-12T16:46:43.690Z,67.68
2022-09-12T16:51:47.012Z,68.21
2022-09-12T16:56:49.408Z,68.82
2022-09-12T17:01:51.588Z,69.47
2022-09-12T17:06:53.401Z,69.61
2022-09-12T17:11:55.950Z,70.69
2022-09-12T17:16:57.513Z,70.95
2022-09-12T17:21:59.484Z,72.18
2022-09-12T17:27:01.433Z,73.22
2022-09-12T17:32:03.119Z,72.01
2022-09-12T17:37:04.734Z,73.07
2022-09-12T17:42:07.343Z,75.38
2022-09-12T17:47:08.847Z,76.28
2022-09-12T17:52:11.409Z,75.47
2022-09-12T17:57:12.938Z,75.14
2022-09-12T18:02:15.672Z,74.74
2022-09-12T18:07:19.409Z,75.89
2022-09-12T18:12:21.053Z,75.94
2022-09-12T18:17:22.783Z,76.61
2022-09-12T18:22:24.538Z,75.39
2022-09-12T18:27:26.136Z,76.25
2022-09-12T18:32:27.674Z,76.79
2022-09-12T18:37:29.242Z,76.10
2022-09-12T18:42:30.737Z,76.02
2022-09-12T18:47:32.335Z,75.78
2022-09-12T18:52:33.853Z,75.71
2022-09-12T18:57:35.382Z,75.67
2022-09-12T19:02:36.954Z,75.75
2022-09-12T19:07:38.605Z,75.84
2022-09-12T19:12:40.180Z,77.24
2022-09-12T19:17:41.716Z,76.48
2022-09-12T19:22:43.795Z,76.61
2022-09-12T19:27:45.313Z,77.13
2022-09-12T19:32:46.949Z,76.79
2022-09-12T19:37:48.502Z,77.17
2022-09-12T19:42:50.125Z,77.91
2022-09-12T19:47:51.692Z,79.38
2022-09-12T19:52:53.346Z,78.30
2022-09-12T19:57:55.026Z,78.44
2022-09-12T20:02:56.552Z,78.07
2022-09-12T20:07:59.044Z,78.06
2022-09-12T20:13:00.618Z,78.32
2022-09-12T20:18:02.170Z,79.03
2022-09-12T20:23:03.733Z,79.29
2022-09-12T20:28:05.251Z,79.93
2022-09-12T20:33:06.785Z,79.44
2022-09-12T20:38:09.106Z,79.11
2022-09-12T20:43:10.621Z,79.00
2022-09-12T20:48:12.074Z,78.94
2022-09-12T20:53:14.212Z,79.32
2022-09-12T20:58:16.057Z,79.15
2022-09-12T21:03:17.939Z,79.43
2022-09-12T21:08:19.474Z,80.64
2022-09-12T21:13:20.959Z,79.85
2022-09-12T21:18:22.428Z,79.75
2022-09-12T21:23:25.835Z,80.15
2022-09-12T21:28:27.777Z,81.38
2022-09-12T21:33:29.583Z,80.67
2022-09-12T21:38:31.841Z,80.76
2022-09-12T21:43:34.221Z,80.99
2022-09-12T21:48:36.869Z,81.06
2022-09-12T21:54:52.706Z,80.86
2022-09-12T22:00:38.017Z,80.89
2022-09-12T22:06:35.762Z,80.84
2022-09-12T22:12:51.083Z,81.31
2022-09-12T22:18:39.817Z,81.26
2022-09-12T22:24:37.241Z,81.22
2022-09-12T22:36:43.734Z,81.38
2022-09-12T22:42:30.725Z,81.18
2022-09-12T22:48:16.533Z,81.29
2022-09-12T22:54:18.063Z,81.69
2022-09-12T22:59:45.129Z,81.30
2022-09-12T23:05:52.561Z,81.26
2022-09-12T23:11:46.129Z,81.07
2022-09-12T23:17:40.153Z,80.98
2022-09-12T23:23:50.044Z,81.03
2022-09-12T23:29:30.188Z,81.79
2022-09-12T23:34:35.625Z,82.46
2022-09-12T23:40:35.634Z,81.83
2022-09-12T23:46:50.146Z,82.13
2022-09-12T23:52:57.754Z,81.65
2022-09-12T23:59:13.586Z,81.59
